OAL320 LGIR-LCPH
Flight info
| Callsign | OAL320 |
|---|---|
| Flight time | 1h 2m |
| Altitude | 37000 |
| Route | 3520N02510E DCT IR400 DCT D089L DCT VP006 DCT SIT UM978 TOSKA DCT 3457N03057E DCT TOBAL DCT 3452N03225E DCT DIPOS DCT PH951 |
| Aircraft | A20N/M-SDE2E3FGHIRWXY/LB1 |
Departure
| Time | 2026-04-21 15:46 |
|---|---|
| Airport | Heraklion International Nikos Kazantzakis Airport (LGIR) |
Arrival
| Time | 2026-04-21 16:48 |
|---|---|
| Airport | Paphos International Airport (LCPH) |
| Time | Latitude | Longitude | Altitude | Speed | Heading |
|---|---|---|---|---|---|
| 2026-04-21 15:30 | 35.33768 | 25.17416 | 91 ft | 0 kts | 275° |
| 2026-04-21 15:38 | 35.33770 | 25.17397 | 91 ft | 5 kts | 277° |
| 2026-04-21 15:38 | 35.33795 | 25.17368 | 91 ft | 6 kts | 351° |
| 2026-04-21 15:38 | 35.33840 | 25.17372 | 90 ft | 6 kts | 4° |
| 2026-04-21 15:38 | 35.33867 | 25.17375 | 94 ft | 2 kts | 5° |
| 2026-04-21 15:39 | 35.33874 | 25.17376 | 92 ft | 0 kts | 5° |
| 2026-04-21 15:40 | 35.33877 | 25.17376 | 92 ft | 2 kts | 5° |
| 2026-04-21 15:41 | 35.33899 | 25.17375 | 91 ft | 5 kts | 347° |
| 2026-04-21 15:41 | 35.33923 | 25.17329 | 90 ft | 9 kts | 281° |
| 2026-04-21 15:41 | 35.33932 | 25.17241 | 90 ft | 12 kts | 276° |
| 2026-04-21 15:41 | 35.33937 | 25.17134 | 90 ft | 14 kts | 273° |
| 2026-04-21 15:42 | 35.33945 | 25.17007 | 91 ft | 16 kts | 275° |
| 2026-04-21 15:42 | 35.33955 | 25.16865 | 94 ft | 17 kts | 275° |
| 2026-04-21 15:42 | 35.33969 | 25.16759 | 90 ft | 9 kts | 292° |
| 2026-04-21 15:42 | 35.33974 | 25.16747 | 91 ft | 0 kts | 296° |
| 2026-04-21 15:44 | 35.33980 | 25.16735 | 91 ft | 4 kts | 300° |
| 2026-04-21 15:44 | 35.34008 | 25.16684 | 91 ft | 10 kts | 304° |
| 2026-04-21 15:44 | 35.34052 | 25.16623 | 92 ft | 7 kts | 345° |
| 2026-04-21 15:44 | 35.34068 | 25.16667 | 90 ft | 2 kts | 95° |
| 2026-04-21 15:45 | 35.34058 | 25.16824 | 91 ft | 52 kts | 95° |
| 2026-04-21 15:45 | 35.34006 | 25.17573 | 91 ft | 120 kts | 95° |
| 2026-04-21 15:45 | 35.33923 | 25.18823 | 119 ft | 170 kts | 94° |
| 2026-04-21 15:46 | 35.33785 | 25.20295 | 665 ft | 178 kts | 97° |
| 2026-04-21 15:46 | 35.33581 | 25.21832 | 1330 ft | 187 kts | 99° |
| 2026-04-21 15:46 | 35.33352 | 25.23431 | 2000 ft | 196 kts | 95° |
| 2026-04-21 15:46 | 35.33329 | 25.25178 | 2436 ft | 216 kts | 87° |
| 2026-04-21 15:47 | 35.33371 | 25.26450 | 2702 ft | 234 kts | 87° |
| 2026-04-21 15:47 | 35.33398 | 25.28536 | 3298 ft | 256 kts | 90° |
| 2026-04-21 15:47 | 35.33355 | 25.30797 | 3959 ft | 274 kts | 92° |
| 2026-04-21 15:47 | 35.33202 | 25.33913 | 5278 ft | 280 kts | 94° |
| 2026-04-21 15:48 | 35.33056 | 25.36328 | 6200 ft | 288 kts | 94° |
| 2026-04-21 15:48 | 35.32902 | 25.38792 | 7143 ft | 291 kts | 93° |
| 2026-04-21 15:48 | 35.32798 | 25.40468 | 7770 ft | 295 kts | 93° |
| 2026-04-21 15:48 | 35.32592 | 25.43828 | 8941 ft | 302 kts | 93° |
| 2026-04-21 15:49 | 35.32486 | 25.45572 | 9559 ft | 305 kts | 92° |
| 2026-04-21 15:49 | 35.32329 | 25.48184 | 10350 ft | 314 kts | 92° |
| 2026-04-21 15:49 | 35.32164 | 25.50948 | 10700 ft | 337 kts | 92° |
| 2026-04-21 15:49 | 35.31988 | 25.53906 | 11025 ft | 358 kts | 92° |
| 2026-04-21 15:50 | 35.31803 | 25.56975 | 11775 ft | 365 kts | 92° |
| 2026-04-21 15:50 | 35.31612 | 25.60096 | 12616 ft | 369 kts | 92° |
| 2026-04-21 15:50 | 35.31418 | 25.63247 | 13434 ft | 374 kts | 93° |
| 2026-04-21 15:50 | 35.31220 | 25.66440 | 14178 ft | 379 kts | 93° |
| 2026-04-21 15:51 | 35.31020 | 25.69673 | 14884 ft | 383 kts | 93° |
| 2026-04-21 15:51 | 35.30818 | 25.72943 | 15602 ft | 387 kts | 92° |
| 2026-04-21 15:51 | 35.30618 | 25.76239 | 16324 ft | 392 kts | 93° |
| 2026-04-21 15:51 | 35.30409 | 25.79589 | 16988 ft | 397 kts | 93° |
| 2026-04-21 15:52 | 35.30194 | 25.82977 | 17672 ft | 401 kts | 93° |
| 2026-04-21 15:52 | 35.29978 | 25.86396 | 18330 ft | 406 kts | 93° |
| 2026-04-21 15:52 | 35.29761 | 25.89807 | 18907 ft | 409 kts | 93° |
| 2026-04-21 15:52 | 35.29518 | 25.93291 | 19518 ft | 413 kts | 97° |
| 2026-04-21 15:53 | 35.28735 | 25.96686 | 20092 ft | 417 kts | 115° |
| 2026-04-21 15:53 | 35.27206 | 25.99703 | 20670 ft | 419 kts | 131° |
| 2026-04-21 15:53 | 35.25083 | 26.02147 | 21235 ft | 420 kts | 144° |
| 2026-04-21 15:53 | 35.22714 | 26.04255 | 21812 ft | 423 kts | 147° |
| 2026-04-21 15:54 | 35.20325 | 26.06304 | 22383 ft | 427 kts | 147° |
| 2026-04-21 15:54 | 35.17877 | 26.08472 | 22959 ft | 431 kts | 146° |
| 2026-04-21 15:54 | 35.15471 | 26.10681 | 23536 ft | 434 kts | 145° |
| 2026-04-21 15:54 | 35.13068 | 26.12942 | 24014 ft | 438 kts | 144° |
| 2026-04-21 15:55 | 35.10667 | 26.15263 | 24481 ft | 442 kts | 140° |
| 2026-04-21 15:55 | 35.08602 | 26.18072 | 24917 ft | 448 kts | 125° |
| 2026-04-21 15:55 | 35.07122 | 26.21432 | 25357 ft | 452 kts | 111° |
| 2026-04-21 15:55 | 35.06316 | 26.25137 | 25763 ft | 455 kts | 97° |
| 2026-04-21 15:56 | 35.06174 | 26.29000 | 26170 ft | 456 kts | 86° |
| 2026-04-21 15:56 | 35.06315 | 26.32876 | 26584 ft | 459 kts | 85° |
| 2026-04-21 15:56 | 35.06454 | 26.36783 | 26998 ft | 462 kts | 86° |
| 2026-04-21 15:56 | 35.06520 | 26.40720 | 27393 ft | 466 kts | 88° |
| 2026-04-21 15:57 | 35.06522 | 26.44635 | 27780 ft | 469 kts | 89° |
| 2026-04-21 15:57 | 35.06488 | 26.48630 | 28156 ft | 472 kts | 89° |
| 2026-04-21 15:57 | 35.06435 | 26.52652 | 28524 ft | 475 kts | 89° |
| 2026-04-21 15:57 | 35.06376 | 26.56693 | 28878 ft | 478 kts | 89° |
| 2026-04-21 15:58 | 35.06315 | 26.60765 | 29223 ft | 481 kts | 89° |
| 2026-04-21 15:58 | 35.06253 | 26.64858 | 29545 ft | 484 kts | 89° |
| 2026-04-21 15:58 | 35.06191 | 26.68975 | 29898 ft | 486 kts | 89° |
| 2026-04-21 15:58 | 35.06127 | 26.73114 | 30201 ft | 489 kts | 89° |
| 2026-04-21 15:59 | 35.06062 | 26.77270 | 30483 ft | 492 kts | 89° |
| 2026-04-21 15:59 | 35.05995 | 26.81459 | 30764 ft | 495 kts | 89° |
| 2026-04-21 15:59 | 35.05927 | 26.85665 | 31055 ft | 497 kts | 90° |
| 2026-04-21 15:59 | 35.05856 | 26.89892 | 31393 ft | 498 kts | 90° |
| 2026-04-21 16:00 | 35.05784 | 26.94115 | 31757 ft | 498 kts | 90° |
| 2026-04-21 16:00 | 35.05710 | 26.98346 | 32122 ft | 498 kts | 90° |
| 2026-04-21 16:00 | 35.05635 | 27.02573 | 32476 ft | 499 kts | 90° |
| 2026-04-21 16:00 | 35.05559 | 27.06807 | 32833 ft | 499 kts | 90° |
| 2026-04-21 16:01 | 35.05481 | 27.11033 | 33171 ft | 499 kts | 90° |
| 2026-04-21 16:01 | 35.05402 | 27.15270 | 33504 ft | 499 kts | 90° |
| 2026-04-21 16:01 | 35.05321 | 27.19507 | 33831 ft | 499 kts | 90° |
| 2026-04-21 16:01 | 35.05239 | 27.23739 | 34132 ft | 499 kts | 90° |
| 2026-04-21 16:02 | 35.05156 | 27.27974 | 34413 ft | 499 kts | 90° |
| 2026-04-21 16:02 | 35.05070 | 27.32206 | 34686 ft | 499 kts | 90° |
| 2026-04-21 16:02 | 35.04981 | 27.36440 | 34950 ft | 499 kts | 90° |
| 2026-04-21 16:02 | 35.04890 | 27.40668 | 35207 ft | 499 kts | 90° |
| 2026-04-21 16:03 | 35.04799 | 27.44898 | 35454 ft | 499 kts | 90° |
| 2026-04-21 16:03 | 35.04706 | 27.49124 | 35710 ft | 498 kts | 90° |
| 2026-04-21 16:03 | 35.04612 | 27.53352 | 35949 ft | 498 kts | 90° |
| 2026-04-21 16:03 | 35.04518 | 27.57573 | 36181 ft | 498 kts | 90° |
| 2026-04-21 16:04 | 35.04424 | 27.61804 | 36409 ft | 498 kts | 90° |
| 2026-04-21 16:04 | 35.04329 | 27.66027 | 36627 ft | 498 kts | 90° |
| 2026-04-21 16:04 | 35.04232 | 27.70252 | 36843 ft | 498 kts | 90° |
| 2026-04-21 16:04 | 35.04133 | 27.74467 | 37013 ft | 497 kts | 90° |
| 2026-04-21 16:05 | 35.03932 | 27.82899 | 37008 ft | 497 kts | 91° |
| 2026-04-21 16:05 | 35.03724 | 27.91325 | 37000 ft | 497 kts | 91° |
| 2026-04-21 16:06 | 35.03511 | 27.99746 | 37001 ft | 496 kts | 91° |
| 2026-04-21 16:06 | 35.03292 | 28.08165 | 37002 ft | 497 kts | 91° |
| 2026-04-21 16:07 | 35.03067 | 28.16592 | 37004 ft | 497 kts | 91° |
| 2026-04-21 16:07 | 35.02836 | 28.25028 | 37007 ft | 497 kts | 91° |
| 2026-04-21 16:08 | 35.02478 | 28.37681 | 37010 ft | 498 kts | 91° |
| 2026-04-21 16:09 | 35.02234 | 28.46069 | 37011 ft | 498 kts | 91° |
| 2026-04-21 16:09 | 35.01982 | 28.54510 | 37014 ft | 498 kts | 91° |
| 2026-04-21 16:10 | 35.01725 | 28.62949 | 37011 ft | 498 kts | 91° |
| 2026-04-21 16:10 | 35.01459 | 28.71385 | 37009 ft | 498 kts | 91° |
| 2026-04-21 16:11 | 35.01185 | 28.79816 | 37004 ft | 498 kts | 91° |
| 2026-04-21 16:11 | 35.00905 | 28.88250 | 37007 ft | 497 kts | 91° |
| 2026-04-21 16:12 | 35.00669 | 28.95256 | 37007 ft | 497 kts | 91° |
| 2026-04-21 16:12 | 35.00330 | 29.05099 | 37002 ft | 497 kts | 91° |
| 2026-04-21 16:13 | 35.00033 | 29.13518 | 37001 ft | 497 kts | 91° |
| 2026-04-21 16:13 | 34.99731 | 29.21937 | 37003 ft | 497 kts | 91° |
| 2026-04-21 16:14 | 34.99423 | 29.30350 | 36999 ft | 497 kts | 92° |
| 2026-04-21 16:14 | 34.99111 | 29.38757 | 37001 ft | 496 kts | 92° |
| 2026-04-21 16:15 | 34.98794 | 29.47164 | 36998 ft | 496 kts | 92° |
| 2026-04-21 16:15 | 34.98471 | 29.55570 | 36997 ft | 496 kts | 92° |
| 2026-04-21 16:16 | 34.98142 | 29.63981 | 36996 ft | 496 kts | 92° |
| 2026-04-21 16:16 | 34.97807 | 29.72382 | 37001 ft | 496 kts | 92° |
| 2026-04-21 16:17 | 34.97467 | 29.80790 | 36978 ft | 495 kts | 92° |
| 2026-04-21 16:17 | 34.97298 | 29.84917 | 36694 ft | 493 kts | 92° |
| 2026-04-21 16:17 | 34.97126 | 29.89089 | 36160 ft | 492 kts | 92° |
| 2026-04-21 16:17 | 34.96952 | 29.93257 | 35526 ft | 492 kts | 92° |
| 2026-04-21 16:18 | 34.96778 | 29.97420 | 34866 ft | 492 kts | 92° |
| 2026-04-21 16:18 | 34.96605 | 30.01585 | 34206 ft | 492 kts | 91° |
| 2026-04-21 16:18 | 34.96516 | 30.05757 | 33497 ft | 492 kts | 89° |
| 2026-04-21 16:18 | 34.96476 | 30.09922 | 32787 ft | 490 kts | 89° |
| 2026-04-21 16:19 | 34.96440 | 30.14075 | 32064 ft | 490 kts | 89° |
| 2026-04-21 16:19 | 34.96394 | 30.18223 | 31341 ft | 489 kts | 89° |
| 2026-04-21 16:19 | 34.96339 | 30.22364 | 30619 ft | 489 kts | 89° |
| 2026-04-21 16:19 | 34.96277 | 30.26494 | 30012 ft | 485 kts | 89° |
| 2026-04-21 16:20 | 34.96211 | 30.30590 | 29365 ft | 480 kts | 89° |
| 2026-04-21 16:20 | 34.96145 | 30.34641 | 28741 ft | 476 kts | 89° |
| 2026-04-21 16:20 | 34.96077 | 30.38648 | 28133 ft | 471 kts | 89° |
| 2026-04-21 16:20 | 34.96010 | 30.42620 | 27530 ft | 466 kts | 89° |
| 2026-04-21 16:21 | 34.95941 | 30.46561 | 26938 ft | 462 kts | 89° |
| 2026-04-21 16:21 | 34.95872 | 30.50457 | 26367 ft | 458 kts | 89° |
| 2026-04-21 16:21 | 34.95803 | 30.54322 | 25800 ft | 454 kts | 89° |
| 2026-04-21 16:21 | 34.95733 | 30.58153 | 25244 ft | 450 kts | 89° |
| 2026-04-21 16:22 | 34.95663 | 30.61944 | 24707 ft | 446 kts | 89° |
| 2026-04-21 16:22 | 34.95591 | 30.65710 | 24172 ft | 442 kts | 89° |
| 2026-04-21 16:22 | 34.95520 | 30.69438 | 23649 ft | 438 kts | 89° |
| 2026-04-21 16:22 | 34.95448 | 30.73143 | 23065 ft | 434 kts | 89° |
| 2026-04-21 16:23 | 34.95375 | 30.76807 | 22487 ft | 430 kts | 89° |
| 2026-04-21 16:23 | 34.95304 | 30.80385 | 21930 ft | 426 kts | 90° |
| 2026-04-21 16:23 | 34.95229 | 30.84029 | 21368 ft | 422 kts | 90° |
| 2026-04-21 16:23 | 34.95157 | 30.87543 | 20808 ft | 418 kts | 90° |
| 2026-04-21 16:24 | 34.95083 | 30.91066 | 20274 ft | 415 kts | 90° |
| 2026-04-21 16:24 | 34.95009 | 30.94566 | 19729 ft | 411 kts | 90° |
| 2026-04-21 16:24 | 34.94940 | 30.98035 | 19213 ft | 408 kts | 90° |
| 2026-04-21 16:24 | 34.94882 | 31.01477 | 18703 ft | 404 kts | 89° |
| 2026-04-21 16:25 | 34.94826 | 31.04881 | 18187 ft | 401 kts | 89° |
| 2026-04-21 16:25 | 34.94771 | 31.08261 | 17671 ft | 396 kts | 90° |
| 2026-04-21 16:25 | 34.94713 | 31.11606 | 17090 ft | 393 kts | 90° |
| 2026-04-21 16:25 | 34.94654 | 31.14923 | 16553 ft | 390 kts | 90° |
| 2026-04-21 16:26 | 34.94594 | 31.18215 | 16026 ft | 387 kts | 90° |
| 2026-04-21 16:26 | 34.94534 | 31.21477 | 15537 ft | 383 kts | 90° |
| 2026-04-21 16:26 | 34.94473 | 31.24697 | 15227 ft | 379 kts | 90° |
| 2026-04-21 16:26 | 34.94412 | 31.27911 | 14835 ft | 378 kts | 90° |
| 2026-04-21 16:27 | 34.94351 | 31.31111 | 14588 ft | 377 kts | 90° |
| 2026-04-21 16:27 | 34.94289 | 31.34299 | 14349 ft | 377 kts | 90° |
| 2026-04-21 16:27 | 34.94226 | 31.37486 | 14117 ft | 375 kts | 90° |
| 2026-04-21 16:27 | 34.94162 | 31.40660 | 13879 ft | 374 kts | 90° |
| 2026-04-21 16:28 | 34.94098 | 31.43820 | 13626 ft | 372 kts | 90° |
| 2026-04-21 16:28 | 34.94033 | 31.46963 | 13361 ft | 370 kts | 90° |
| 2026-04-21 16:28 | 34.93968 | 31.50086 | 13089 ft | 368 kts | 90° |
| 2026-04-21 16:28 | 34.93902 | 31.53195 | 12840 ft | 366 kts | 90° |
| 2026-04-21 16:29 | 34.93858 | 31.55248 | 12668 ft | 365 kts | 90° |
| 2026-04-21 16:29 | 34.93769 | 31.59369 | 12325 ft | 363 kts | 90° |
| 2026-04-21 16:29 | 34.93703 | 31.62392 | 12077 ft | 361 kts | 90° |
| 2026-04-21 16:29 | 34.93635 | 31.65479 | 11821 ft | 359 kts | 90° |
| 2026-04-21 16:30 | 34.93568 | 31.68471 | 11576 ft | 357 kts | 90° |
| 2026-04-21 16:30 | 34.93499 | 31.71488 | 11329 ft | 355 kts | 90° |
| 2026-04-21 16:30 | 34.93431 | 31.74491 | 11082 ft | 354 kts | 90° |
| 2026-04-21 16:30 | 34.93362 | 31.77477 | 10838 ft | 352 kts | 90° |
| 2026-04-21 16:31 | 34.93292 | 31.80451 | 10599 ft | 350 kts | 90° |
| 2026-04-21 16:31 | 34.93222 | 31.83411 | 10371 ft | 348 kts | 90° |
| 2026-04-21 16:31 | 34.93152 | 31.86317 | 10268 ft | 337 kts | 90° |
| 2026-04-21 16:31 | 34.93084 | 31.89121 | 10163 ft | 325 kts | 90° |
| 2026-04-21 16:32 | 34.93017 | 31.91812 | 10050 ft | 312 kts | 90° |
| 2026-04-21 16:32 | 34.92953 | 31.94414 | 9775 ft | 305 kts | 90° |
| 2026-04-21 16:32 | 34.92890 | 31.96975 | 9507 ft | 297 kts | 90° |
| 2026-04-21 16:32 | 34.92828 | 31.99477 | 9379 ft | 297 kts | 90° |
| 2026-04-21 16:33 | 34.92766 | 32.02004 | 9246 ft | 298 kts | 90° |
| 2026-04-21 16:33 | 34.92702 | 32.04518 | 9113 ft | 296 kts | 90° |
| 2026-04-21 16:33 | 34.92638 | 32.07020 | 8989 ft | 295 kts | 90° |
| 2026-04-21 16:33 | 34.92574 | 32.09520 | 8858 ft | 295 kts | 90° |
| 2026-04-21 16:34 | 34.92264 | 32.11980 | 8724 ft | 296 kts | 108° |
| 2026-04-21 16:34 | 34.91271 | 32.14157 | 8595 ft | 296 kts | 129° |
| 2026-04-21 16:34 | 34.89941 | 32.16072 | 8482 ft | 296 kts | 130° |
| 2026-04-21 16:34 | 34.88614 | 32.17978 | 8355 ft | 295 kts | 130° |
| 2026-04-21 16:35 | 34.87293 | 32.19885 | 8225 ft | 294 kts | 130° |
| 2026-04-21 16:35 | 34.85977 | 32.21789 | 8110 ft | 294 kts | 130° |
| 2026-04-21 16:35 | 34.84665 | 32.23690 | 7982 ft | 292 kts | 130° |
| 2026-04-21 16:35 | 34.83357 | 32.25584 | 7856 ft | 292 kts | 130° |
| 2026-04-21 16:36 | 34.82051 | 32.27475 | 7765 ft | 289 kts | 130° |
| 2026-04-21 16:36 | 34.81203 | 32.28702 | 7716 ft | 283 kts | 130° |
| 2026-04-21 16:36 | 34.79962 | 32.30498 | 7630 ft | 272 kts | 130° |
| 2026-04-21 16:36 | 34.78772 | 32.32218 | 7529 ft | 260 kts | 130° |
| 2026-04-21 16:37 | 34.77630 | 32.33867 | 7425 ft | 250 kts | 130° |
| 2026-04-21 16:37 | 34.76520 | 32.35472 | 7172 ft | 247 kts | 130° |
| 2026-04-21 16:37 | 34.75057 | 32.37584 | 6768 ft | 246 kts | 130° |
| 2026-04-21 16:37 | 34.74312 | 32.38659 | 6597 ft | 245 kts | 130° |
| 2026-04-21 16:38 | 34.73220 | 32.40235 | 6330 ft | 244 kts | 130° |
| 2026-04-21 16:38 | 34.72126 | 32.41812 | 5999 ft | 244 kts | 130° |
| 2026-04-21 16:38 | 34.71039 | 32.43380 | 5710 ft | 242 kts | 130° |
| 2026-04-21 16:38 | 34.69953 | 32.44945 | 5393 ft | 242 kts | 130° |
| 2026-04-21 16:39 | 34.68869 | 32.46503 | 5115 ft | 240 kts | 130° |
| 2026-04-21 16:39 | 34.67795 | 32.48050 | 4849 ft | 239 kts | 130° |
| 2026-04-21 16:39 | 34.66734 | 32.49578 | 4513 ft | 240 kts | 130° |
| 2026-04-21 16:39 | 34.65647 | 32.51146 | 4214 ft | 239 kts | 130° |
| 2026-04-21 16:40 | 34.64579 | 32.52686 | 3936 ft | 238 kts | 130° |
| 2026-04-21 16:40 | 34.63516 | 32.54219 | 3672 ft | 237 kts | 130° |
| 2026-04-21 16:40 | 34.62473 | 32.55722 | 3425 ft | 236 kts | 130° |
| 2026-04-21 16:40 | 34.61415 | 32.57247 | 3117 ft | 236 kts | 130° |
| 2026-04-21 16:41 | 34.60361 | 32.58766 | 2817 ft | 236 kts | 130° |
| 2026-04-21 16:41 | 34.59308 | 32.60278 | 2569 ft | 233 kts | 130° |
| 2026-04-21 16:41 | 34.58439 | 32.61931 | 2255 ft | 234 kts | 109° |
| 2026-04-21 16:41 | 34.58151 | 32.63834 | 2102 ft | 225 kts | 86° |
| 2026-04-21 16:42 | 34.58442 | 32.65712 | 2101 ft | 229 kts | 65° |
| 2026-04-21 16:42 | 34.59256 | 32.67343 | 2101 ft | 222 kts | 44° |
| 2026-04-21 16:42 | 34.60401 | 32.68453 | 2094 ft | 201 kts | 24° |
| 2026-04-21 16:42 | 34.61665 | 32.69007 | 2095 ft | 192 kts | 6° |
| 2026-04-21 16:43 | 34.62989 | 32.69075 | 2096 ft | 189 kts | 349° |
| 2026-04-21 16:43 | 34.64209 | 32.68684 | 2111 ft | 172 kts | 334° |
| 2026-04-21 16:43 | 34.65181 | 32.67977 | 2092 ft | 154 kts | 320° |
| 2026-04-21 16:43 | 34.65876 | 32.67113 | 2087 ft | 132 kts | 307° |
| 2026-04-21 16:44 | 34.66401 | 32.66140 | 2102 ft | 142 kts | 298° |
| 2026-04-21 16:44 | 34.66805 | 32.65068 | 2095 ft | 138 kts | 293° |
| 2026-04-21 16:44 | 34.67142 | 32.63984 | 2099 ft | 138 kts | 292° |
| 2026-04-21 16:44 | 34.67474 | 32.62887 | 2103 ft | 138 kts | 291° |
| 2026-04-21 16:45 | 34.67805 | 32.61788 | 2100 ft | 137 kts | 290° |
| 2026-04-21 16:45 | 34.68138 | 32.60679 | 2020 ft | 140 kts | 292° |
| 2026-04-21 16:45 | 34.68470 | 32.59584 | 1839 ft | 138 kts | 291° |
| 2026-04-21 16:45 | 34.68802 | 32.58480 | 1656 ft | 138 kts | 291° |
| 2026-04-21 16:46 | 34.69127 | 32.57399 | 1476 ft | 136 kts | 290° |
| 2026-04-21 16:46 | 34.69454 | 32.56316 | 1299 ft | 136 kts | 291° |
| 2026-04-21 16:46 | 34.69765 | 32.55286 | 1102 ft | 127 kts | 291° |
| 2026-04-21 16:46 | 34.70097 | 32.54188 | 906 ft | 140 kts | 291° |
| 2026-04-21 16:47 | 34.70412 | 32.53128 | 673 ft | 130 kts | 292° |
| 2026-04-21 16:47 | 34.70726 | 32.52136 | 436 ft | 122 kts | 293° |
| 2026-04-21 16:47 | 34.71013 | 32.51202 | 237 ft | 114 kts | 290° |
| 2026-04-21 16:47 | 34.71266 | 32.50302 | 111 ft | 115 kts | 290° |
| 2026-04-21 16:48 | 34.71551 | 32.49350 | 41 ft | 119 kts | 291° |
| 2026-04-21 16:48 | 34.71775 | 32.48611 | 41 ft | 65 kts | 290° |
| 2026-04-21 16:48 | 34.71820 | 32.48462 | 42 ft | 1 kts | 285° |
| 2026-04-21 16:48 | 34.71804 | 32.48424 | 44 ft | 9 kts | 226° |
| 2026-04-21 16:49 | 34.71733 | 32.48385 | 44 ft | 14 kts | 198° |
| 2026-04-21 16:49 | 34.71664 | 32.48406 | 44 ft | 12 kts | 120° |
| 2026-04-21 16:49 | 34.71644 | 32.48477 | 44 ft | 9 kts | 108° |
| 2026-04-21 16:49 | 34.71615 | 32.48566 | 43 ft | 13 kts | 111° |
| 2026-04-21 16:50 | 34.71577 | 32.48684 | 43 ft | 17 kts | 109° |
| 2026-04-21 16:50 | 34.71539 | 32.48818 | 42 ft | 13 kts | 111° |
| 2026-04-21 16:50 | 34.71525 | 32.48860 | 42 ft | 0 kts | 111° |
| 2026-04-21 16:51 | 34.71519 | 32.48878 | 42 ft | 5 kts | 111° |
| 2026-04-21 16:51 | 34.71500 | 32.48938 | 42 ft | 10 kts | 111° |
| 2026-04-21 16:51 | 34.71471 | 32.49015 | 42 ft | 7 kts | 140° |
| 2026-04-21 16:51 | 34.71418 | 32.49005 | 42 ft | 7 kts | 201° |
| 2026-04-21 16:52 | 34.71404 | 32.48998 | 42 ft | 0 kts | 201° |